createdAt,value
2023-03-22T00:00:35.820Z,61.00
2023-03-22T00:01:35.853Z,61.90
2023-03-22T00:02:35.866Z,66.90
2023-03-22T00:03:35.856Z,67.60
2023-03-22T00:04:35.816Z,65.60
2023-03-22T00:05:35.839Z,70.70
2023-03-22T00:06:35.799Z,73.80
2023-03-22T00:07:35.796Z,75.00
2023-03-22T00:08:35.831Z,62.40
2023-03-22T00:09:35.772Z,61.90
2023-03-22T00:10:35.754Z,51.70
2023-03-22T00:12:09.009Z,62.50
2023-03-22T00:12:35.730Z,57.30
2023-03-22T00:13:35.825Z,62.50
2023-03-22T00:14:35.740Z,59.20
2023-03-22T00:15:35.728Z,58.40
2023-03-22T00:16:35.730Z,62.60
2023-03-22T00:17:35.942Z,63.40
2023-03-22T00:18:35.694Z,62.30
2023-03-22T00:19:35.721Z,66.20
2023-03-22T00:20:35.728Z,75.70
2023-03-22T00:21:35.676Z,68.00
2023-03-22T00:22:35.642Z,77.10
2023-03-22T00:23:35.651Z,71.70
2023-03-22T00:24:35.652Z,74.20
2023-03-22T00:25:35.662Z,78.10
2023-03-22T00:26:35.636Z,67.60
2023-03-22T00:27:35.631Z,80.20
2023-03-22T00:28:35.609Z,82.00
2023-03-22T00:29:35.648Z,83.70
2023-03-22T00:30:35.634Z,85.10
2023-03-22T00:31:35.702Z,68.30
2023-03-22T00:32:35.607Z,69.40
2023-03-22T00:33:35.616Z,67.70
2023-03-22T00:34:35.573Z,66.90
2023-03-22T00:35:35.613Z,71.90
2023-03-22T00:36:35.543Z,61.10
2023-03-22T00:37:35.564Z,63.60
2023-03-22T00:38:42.016Z,63.60
2023-03-22T00:39:37.530Z,66.00
2023-03-22T00:40:35.538Z,60.30
2023-03-22T00:41:35.525Z,67.20
2023-03-22T00:42:35.529Z,69.80
2023-03-22T00:43:35.556Z,68.80
2023-03-22T00:44:35.644Z,73.90
2023-03-22T00:45:35.491Z,67.20
2023-03-22T00:46:35.559Z,71.10
2023-03-22T00:47:35.507Z,65.60
2023-03-22T00:48:35.451Z,66.00
2023-03-22T00:49:35.460Z,64.80
2023-03-22T00:50:35.487Z,69.80
2023-03-22T00:51:35.451Z,65.80
2023-03-22T00:52:35.451Z,64.20
2023-03-22T00:53:35.530Z,67.90
2023-03-22T00:54:35.466Z,68.30
2023-03-22T00:55:35.422Z,65.30
2023-03-22T00:56:35.424Z,67.30
2023-03-22T00:57:35.406Z,67.30
2023-03-22T00:58:35.418Z,63.20
2023-03-22T00:59:35.410Z,76.70
2023-03-22T01:00:35.402Z,72.90
2023-03-22T01:01:35.472Z,71.20
2023-03-22T01:02:35.381Z,66.60
2023-03-22T01:03:35.396Z,65.60
2023-03-22T01:04:35.371Z,67.80
2023-03-22T01:05:35.352Z,62.40
2023-03-22T01:06:35.324Z,68.70
2023-03-22T01:07:35.319Z,69.70
2023-03-22T01:08:35.324Z,69.90
2023-03-22T01:09:35.321Z,64.40
2023-03-22T01:10:35.297Z,72.30
2023-03-22T01:11:35.276Z,66.60
2023-03-22T01:12:35.275Z,70.20
2023-03-22T01:13:35.321Z,81.50
2023-03-22T01:14:35.257Z,129.80
2023-03-22T01:15:35.258Z,123.00
2023-03-22T01:16:35.256Z,120.00
2023-03-22T01:17:35.250Z,110.80
2023-03-22T01:18:35.263Z,150.50
2023-03-22T01:19:35.260Z,107.50
2023-03-22T01:20:35.225Z,133.10
2023-03-22T01:21:35.213Z,159.40
2023-03-22T01:22:35.184Z,153.60
2023-03-22T01:23:35.177Z,270.80
2023-03-22T01:24:35.233Z,194.70
2023-03-22T01:25:35.158Z,203.60
2023-03-22T01:26:35.188Z,225.10
2023-03-22T01:27:35.174Z,164.60
2023-03-22T01:28:35.211Z,163.10
2023-03-22T01:29:35.152Z,196.50
2023-03-22T01:30:35.180Z,224.30
2023-03-22T01:31:35.128Z,245.60
2023-03-22T01:32:35.155Z,275.90
2023-03-22T01:33:35.119Z,465.30
2023-03-22T01:34:35.122Z,458.50
2023-03-22T01:35:35.158Z,540.20
2023-03-22T01:36:35.159Z,430.60
2023-03-22T01:37:35.180Z,602.60
2023-03-22T01:38:35.079Z,569.20
2023-03-22T01:39:35.132Z,482.40
2023-03-22T01:40:35.125Z,850.60
2023-03-22T01:41:35.104Z,849.40
2023-03-22T01:42:35.076Z,845.50
2023-03-22T01:43:35.063Z,739.40
2023-03-22T01:44:35.093Z,553.80
2023-03-22T01:45:35.079Z,633.10
2023-03-22T01:46:35.044Z,1255.80
2023-03-22T01:47:35.088Z,845.70
2023-03-22T01:48:35.026Z,724.30
2023-03-22T01:49:34.996Z,752.20
2023-03-22T01:50:35.016Z,532.30
2023-03-22T01:51:35.011Z,756.20
2023-03-22T01:52:35.019Z,519.60
2023-03-22T01:53:35.045Z,584.70
2023-03-22T01:54:34.964Z,613.40
2023-03-22T01:55:34.971Z,513.70
2023-03-22T01:56:35.002Z,289.50
2023-03-22T01:57:34.984Z,531.10
2023-03-22T01:58:34.939Z,821.60
2023-03-22T01:59:34.956Z,488.50
2023-03-22T02:00:34.906Z,583.10
2023-03-22T02:01:35.104Z,449.50
2023-03-22T02:02:34.972Z,356.10
2023-03-22T02:03:34.878Z,368.70
2023-03-22T02:04:34.910Z,338.00
2023-03-22T02:05:34.897Z,405.40
2023-03-22T02:06:34.875Z,444.00
2023-03-22T02:07:34.896Z,672.60
2023-03-22T02:08:34.855Z,574.10
2023-03-22T02:09:35.452Z,288.30
2023-03-22T02:10:36.621Z,391.60
2023-03-22T02:11:34.857Z,878.30
2023-03-22T02:12:34.832Z,500.50
2023-03-22T02:13:34.876Z,224.30
2023-03-22T02:14:34.845Z,191.20
2023-03-22T02:15:34.834Z,159.00
2023-03-22T02:16:34.780Z,132.80
2023-03-22T02:17:34.771Z,125.30
2023-03-22T02:18:34.767Z,92.00
2023-03-22T02:19:34.769Z,89.50
2023-03-22T02:20:34.773Z,101.60
2023-03-22T02:21:34.730Z,120.50
2023-03-22T02:22:34.725Z,138.10
2023-03-22T02:23:35.188Z,294.10
2023-03-22T02:24:34.738Z,301.70
2023-03-22T02:25:34.698Z,349.30
2023-03-22T02:26:34.688Z,529.80
2023-03-22T02:27:34.699Z,560.00
2023-03-22T02:28:34.676Z,609.90
2023-03-22T02:29:34.678Z,547.70
2023-03-22T02:30:35.823Z,768.30
2023-03-22T02:31:34.692Z,546.80
2023-03-22T02:32:34.659Z,466.50
2023-03-22T02:33:34.635Z,510.80
2023-03-22T02:34:34.704Z,367.50
2023-03-22T02:35:34.729Z,382.00
2023-03-22T02:36:34.621Z,335.90
2023-03-22T02:37:34.611Z,370.90
2023-03-22T02:38:34.602Z,372.60
2023-03-22T02:39:34.608Z,452.60
2023-03-22T02:40:34.603Z,531.90
2023-03-22T02:41:34.660Z,440.90
2023-03-22T02:42:34.602Z,569.10
2023-03-22T02:43:34.600Z,477.80
2023-03-22T02:44:34.582Z,621.60
2023-03-22T02:45:34.596Z,730.70
2023-03-22T02:46:34.594Z,664.20
2023-03-22T02:47:34.572Z,595.00
2023-03-22T02:48:34.528Z,489.20
2023-03-22T02:49:36.156Z,500.80
2023-03-22T02:50:34.723Z,318.00
2023-03-22T02:51:34.511Z,417.10
2023-03-22T02:52:34.503Z,471.30
2023-03-22T02:53:34.493Z,483.70
2023-03-22T02:55:07.053Z,549.60
2023-03-22T02:55:35.153Z,561.90
2023-03-22T02:56:34.480Z,619.10
2023-03-22T02:57:34.458Z,598.10
2023-03-22T02:58:34.470Z,592.40
2023-03-22T02:59:34.449Z,656.90
2023-03-22T03:00:34.516Z,466.10
2023-03-22T03:01:34.535Z,595.10
2023-03-22T03:02:34.423Z,621.60
2023-03-22T03:03:34.419Z,532.70
2023-03-22T03:04:35.397Z,331.10
2023-03-22T03:05:35.994Z,540.10
2023-03-22T03:06:34.436Z,440.30
2023-03-22T03:07:34.379Z,466.20
2023-03-22T03:08:34.437Z,729.90
2023-03-22T03:09:34.384Z,581.00
2023-03-22T03:10:34.354Z,523.30
2023-03-22T03:11:34.369Z,478.90
2023-03-22T03:12:34.392Z,648.10
2023-03-22T03:13:34.352Z,579.70
2023-03-22T03:14:34.364Z,552.60
2023-03-22T03:15:34.351Z,347.30
2023-03-22T03:16:34.504Z,347.20
2023-03-22T03:17:34.316Z,432.90
2023-03-22T03:18:34.352Z,490.80
2023-03-22T03:19:34.386Z,513.90
2023-03-22T03:20:34.283Z,369.20
2023-03-22T03:21:34.284Z,346.60
2023-03-22T03:22:34.310Z,472.30
2023-03-22T03:23:34.254Z,564.20
2023-03-22T03:24:35.258Z,400.90
2023-03-22T03:25:34.253Z,544.80
2023-03-22T03:26:34.270Z,588.90
2023-03-22T03:27:34.260Z,404.90
2023-03-22T03:28:34.256Z,898.80
2023-03-22T03:29:34.241Z,469.50
2023-03-22T03:30:34.202Z,357.70
2023-03-22T03:31:34.245Z,690.30
2023-03-22T03:32:34.205Z,520.00
2023-03-22T03:33:34.209Z,314.60
2023-03-22T03:34:34.186Z,234.70
2023-03-22T03:35:34.199Z,183.50
2023-03-22T03:36:34.162Z,186.30
2023-03-22T03:37:34.194Z,136.60
2023-03-22T03:38:34.197Z,191.30
2023-03-22T03:39:34.139Z,200.20
2023-03-22T03:40:34.144Z,165.70
2023-03-22T03:41:34.140Z,198.10
2023-03-22T03:42:34.139Z,146.20
2023-03-22T03:43:34.144Z,150.30
2023-03-22T03:44:34.264Z,142.00
2023-03-22T03:46:06.599Z,156.60
2023-03-22T03:46:34.095Z,145.90
2023-03-22T04:02:54.065Z,294.70
2023-03-22T04:03:54.027Z,269.70
2023-03-22T04:04:55.237Z,499.40
2023-03-22T04:05:55.174Z,491.00
2023-03-22T04:06:55.155Z,432.70
2023-03-22T04:07:55.191Z,372.50
2023-03-22T04:08:55.135Z,480.10
2023-03-22T04:09:55.142Z,552.10
2023-03-22T04:10:55.156Z,818.80
2023-03-22T04:11:55.114Z,339.40
2023-03-22T04:12:55.150Z,354.10
2023-03-22T04:13:55.101Z,333.00
2023-03-22T04:14:55.118Z,491.90
2023-03-22T04:15:55.096Z,500.70
2023-03-22T04:16:55.214Z,347.40
2023-03-22T04:17:55.138Z,357.90
2023-03-22T04:18:55.773Z,336.20
2023-03-22T04:19:55.051Z,294.20
2023-03-22T04:20:55.088Z,356.70
2023-03-22T04:21:55.054Z,373.80
2023-03-22T04:22:55.078Z,346.80
2023-03-22T04:23:55.029Z,437.40
2023-03-22T04:24:55.029Z,289.30
2023-03-22T04:25:55.040Z,320.60
2023-03-22T04:26:55.046Z,291.50
2023-03-22T04:27:55.055Z,417.40
2023-03-22T04:28:55.020Z,542.70
2023-03-22T04:29:55.017Z,449.80
2023-03-22T04:30:55.104Z,445.40
2023-03-22T04:31:54.982Z,365.10
2023-03-22T04:32:54.973Z,340.70
2023-03-22T04:33:54.962Z,278.50
2023-03-22T04:34:54.965Z,349.40
2023-03-22T04:35:54.964Z,306.10
2023-03-22T04:36:54.948Z,347.90
2023-03-22T04:37:54.976Z,313.10
2023-03-22T04:38:55.061Z,359.20
2023-03-22T04:39:54.929Z,319.20
2023-03-22T04:40:54.911Z,397.10
2023-03-22T04:41:54.917Z,356.40
2023-03-22T04:42:54.886Z,325.20
2023-03-22T04:43:54.869Z,406.00
2023-03-22T04:44:54.914Z,511.00
2023-03-22T04:45:55.158Z,323.40
2023-03-22T04:46:54.851Z,346.50
2023-03-22T04:47:54.896Z,304.70
2023-03-22T04:48:54.849Z,442.40
2023-03-22T04:49:54.873Z,301.30
2023-03-22T04:50:54.839Z,313.70
2023-03-22T04:51:54.850Z,319.10
2023-03-22T04:52:54.817Z,486.20
2023-03-22T04:53:54.801Z,376.50
2023-03-22T04:54:54.820Z,325.80
2023-03-22T04:55:54.788Z,337.50
2023-03-22T04:56:54.796Z,422.40
2023-03-22T04:57:54.793Z,384.60
2023-03-22T04:58:54.769Z,529.80
2023-03-22T04:59:54.772Z,406.70
2023-03-22T05:00:54.744Z,423.30
2023-03-22T05:01:54.795Z,498.00
2023-03-22T05:02:54.787Z,449.70
2023-03-22T05:03:54.750Z,365.80
2023-03-22T05:04:54.766Z,418.80
2023-03-22T05:05:54.712Z,584.70
2023-03-22T05:06:54.695Z,360.20
2023-03-22T05:07:54.687Z,393.70
2023-03-22T05:08:54.682Z,300.90
2023-03-22T05:09:54.695Z,438.40
2023-03-22T05:10:54.687Z,263.80
2023-03-22T05:11:54.647Z,348.00
2023-03-22T05:12:54.663Z,312.40
2023-03-22T05:13:54.686Z,367.60
2023-03-22T05:14:55.639Z,329.10
2023-03-22T05:15:54.641Z,371.40
2023-03-22T05:16:54.653Z,344.40
2023-03-22T05:17:54.626Z,320.10
2023-03-22T05:18:54.630Z,330.50
2023-03-22T05:19:54.588Z,471.70
2023-03-22T05:20:54.599Z,407.10
2023-03-22T05:21:54.607Z,305.70
2023-03-22T05:22:54.583Z,335.30
2023-03-22T05:23:54.618Z,299.40
2023-03-22T05:24:54.567Z,273.90
2023-03-22T05:25:54.545Z,316.30
2023-03-22T05:26:54.635Z,225.30
2023-03-22T05:27:54.520Z,337.10
2023-03-22T05:28:54.530Z,273.30
2023-03-22T05:29:54.530Z,330.30
2023-03-22T05:30:57.028Z,325.20
2023-03-22T05:31:55.552Z,387.80
2023-03-22T05:32:54.510Z,366.40
2023-03-22T05:33:54.505Z,274.00
2023-03-22T05:34:54.486Z,211.10
2023-03-22T05:35:54.481Z,198.30
2023-03-22T05:36:54.495Z,173.90
2023-03-22T05:37:54.494Z,187.30
2023-03-22T05:38:54.458Z,199.80
2023-03-22T05:39:54.598Z,172.90
2023-03-22T05:40:54.440Z,269.50
2023-03-22T05:41:54.425Z,361.70
2023-03-22T05:42:54.415Z,337.10
2023-03-22T05:43:54.452Z,338.80
2023-03-22T05:44:54.416Z,379.20
2023-03-22T05:45:54.421Z,398.10
2023-03-22T05:46:54.446Z,353.60
2023-03-22T05:47:54.453Z,343.50
2023-03-22T05:48:54.414Z,359.60
2023-03-22T05:49:54.419Z,354.00
2023-03-22T05:50:55.279Z,477.60
2023-03-22T05:51:54.370Z,454.50
2023-03-22T05:52:55.475Z,413.90
2023-03-22T05:53:54.365Z,346.30
2023-03-22T05:54:54.347Z,344.80
2023-03-22T05:55:54.342Z,364.10
2023-03-22T05:56:55.777Z,347.40
2023-03-22T05:57:55.315Z,328.10
2023-03-22T05:58:54.424Z,268.70
2023-03-22T05:59:54.378Z,275.10
2023-03-22T06:00:54.367Z,309.40
2023-03-22T06:01:54.331Z,304.60
2023-03-22T06:02:55.293Z,323.20
2023-03-22T06:03:54.285Z,290.00
2023-03-22T06:04:54.261Z,400.00
2023-03-22T06:05:54.260Z,307.40
2023-03-22T06:06:54.273Z,296.40
2023-03-22T06:07:54.239Z,375.80
2023-03-22T06:08:56.457Z,255.80
2023-03-22T06:09:55.224Z,206.50
2023-03-22T06:10:54.197Z,250.80
2023-03-22T06:12:27.685Z,251.70
2023-03-22T06:12:54.292Z,266.50
2023-03-22T06:13:54.208Z,323.10
2023-03-22T06:14:54.196Z,333.10
2023-03-22T06:15:54.175Z,945.30
2023-03-22T06:16:54.274Z,534.30
2023-03-22T06:17:54.201Z,245.80
2023-03-22T06:18:54.168Z,433.40
2023-03-22T06:19:54.152Z,645.60
2023-03-22T06:20:54.147Z,424.90
2023-03-22T06:21:54.287Z,643.90
2023-03-22T06:22:54.139Z,131.60
2023-03-22T06:23:54.169Z,191.20
2023-03-22T06:24:54.108Z,181.50
2023-03-22T06:25:54.117Z,225.60
2023-03-22T06:26:54.103Z,164.40
2023-03-22T06:27:54.094Z,353.60
2023-03-22T06:28:54.088Z,299.40
2023-03-22T06:29:54.167Z,103.50
2023-03-22T06:30:54.123Z,458.80
2023-03-22T06:31:54.262Z,1056.50
2023-03-22T06:32:54.043Z,343.50
2023-03-22T06:33:55.848Z,1014.40
2023-03-22T06:34:55.043Z,1915.90
2023-03-22T06:35:54.066Z,1352.10
2023-03-22T06:36:54.042Z,1999.90
2023-03-22T06:37:54.014Z,93.90
2023-03-22T06:38:54.036Z,1769.80
2023-03-22T06:39:53.985Z,1999.90
2023-03-22T06:40:53.981Z,1999.90
2023-03-22T06:41:53.988Z,1999.90
2023-03-22T06:42:54.024Z,1714.30
2023-03-22T06:43:53.967Z,159.70
2023-03-22T06:44:53.979Z,510.10
2023-03-22T06:45:53.950Z,660.60
2023-03-22T06:46:53.915Z,52.70
2023-03-22T06:47:53.966Z,316.80
2023-03-22T06:48:53.911Z,36.60
2023-03-22T06:49:53.912Z,82.70
2023-03-22T06:50:53.914Z,81.90
2023-03-22T06:51:53.888Z,38.50
2023-03-22T06:52:53.898Z,162.40
2023-03-22T06:53:53.867Z,86.10
2023-03-22T06:54:53.864Z,37.20
2023-03-22T06:55:55.442Z,26.70
2023-03-22T06:56:54.848Z,25.40
2023-03-22T06:57:53.884Z,27.20
2023-03-22T06:58:53.825Z,13.30
2023-03-22T06:59:53.825Z,36.20
2023-03-22T07:00:53.823Z,19.10
2023-03-22T07:01:53.864Z,9.90
2023-03-22T07:02:53.812Z,8.90
2023-03-22T07:03:53.805Z,8.20
2023-03-22T07:04:53.805Z,8.20
2023-03-22T07:05:53.772Z,8.10
2023-03-22T07:06:53.771Z,14.50
2023-03-22T07:07:53.772Z,23.50
2023-03-22T07:08:53.766Z,17.10
2023-03-22T07:09:53.782Z,13.60
2023-03-22T07:10:53.844Z,12.90
2023-03-22T07:11:53.735Z,11.70
2023-03-22T07:12:53.733Z,8.80
2023-03-22T07:13:53.743Z,6.50
2023-03-22T07:14:53.723Z,7.00
2023-03-22T07:15:53.716Z,6.50
2023-03-22T07:16:54.712Z,6.70
2023-03-22T07:17:53.701Z,8.40
2023-03-22T07:18:53.707Z,7.10
2023-03-22T07:19:53.693Z,6.20
2023-03-22T07:20:53.749Z,5.20
2023-03-22T07:21:53.703Z,5.50
2023-03-22T07:22:53.663Z,5.90
2023-03-22T07:23:53.776Z,5.70
2023-03-22T07:24:57.722Z,5.40
2023-03-22T07:25:55.630Z,6.30
2023-03-22T07:26:53.629Z,5.70
2023-03-22T07:27:53.620Z,5.50
2023-03-22T07:28:53.728Z,5.70
2023-03-22T07:29:53.613Z,6.00
2023-03-22T07:30:53.608Z,5.60
2023-03-22T07:31:53.703Z,6.30
2023-03-22T07:32:53.598Z,6.00
2023-03-22T07:33:53.580Z,5.80
2023-03-22T07:34:53.578Z,5.60
2023-03-22T07:35:54.339Z,6.20
2023-03-22T07:36:53.553Z,6.70
2023-03-22T07:37:53.634Z,6.60
2023-03-22T07:38:53.537Z,6.00
2023-03-22T07:39:53.543Z,5.80
2023-03-22T07:40:53.551Z,5.90
2023-03-22T07:41:53.518Z,6.50
2023-03-22T07:42:55.753Z,6.50
2023-03-22T07:44:02.249Z,5.70
2023-03-22T07:44:55.506Z,7.20
2023-03-22T07:45:53.557Z,6.40
2023-03-22T07:46:53.501Z,6.80
2023-03-22T07:47:53.565Z,8.10
2023-03-22T07:48:53.556Z,7.60
2023-03-22T07:49:53.460Z,8.20
2023-03-22T07:50:53.480Z,8.30
2023-03-22T07:51:53.462Z,7.80
2023-03-22T07:52:53.759Z,7.40
2023-03-22T07:53:53.528Z,8.30
2023-03-22T07:54:53.740Z,7.80
2023-03-22T07:55:53.417Z,7.00
2023-03-22T07:56:53.414Z,7.40
2023-03-22T07:57:53.424Z,8.80
2023-03-22T07:58:53.468Z,8.40
2023-03-22T07:59:53.429Z,9.00
2023-03-22T08:00:53.447Z,8.90
2023-03-22T08:01:53.477Z,13.00
2023-03-22T08:02:53.379Z,9.50
2023-03-22T08:03:53.393Z,9.60
2023-03-22T08:04:55.807Z,8.70
2023-03-22T08:05:54.355Z,9.30
2023-03-22T08:06:53.389Z,10.10
2023-03-22T08:07:53.334Z,9.40
2023-03-22T08:08:53.351Z,10.00
2023-03-22T08:09:53.335Z,10.20
2023-03-22T08:10:53.305Z,12.50
2023-03-22T08:11:53.330Z,9.70
2023-03-22T08:12:53.318Z,11.80
2023-03-22T08:13:53.270Z,10.00
2023-03-22T08:14:53.294Z,9.50
2023-03-22T08:15:53.383Z,10.90
2023-03-22T08:16:53.296Z,9.30
2023-03-22T08:17:53.248Z,11.10
2023-03-22T08:18:53.265Z,9.70
2023-03-22T08:19:53.273Z,9.00
2023-03-22T08:20:53.271Z,11.40
2023-03-22T08:21:53.225Z,10.60
2023-03-22T08:22:53.267Z,8.40
2023-03-22T08:23:53.222Z,8.10
2023-03-22T08:24:53.330Z,9.90
2023-03-22T08:25:53.219Z,8.00
2023-03-22T08:26:53.260Z,8.40
2023-03-22T08:27:53.163Z,11.60
2023-03-22T08:28:53.250Z,9.90
2023-03-22T08:29:53.186Z,8.70
2023-03-22T08:30:53.158Z,8.10
2023-03-22T08:31:53.206Z,9.50
2023-03-22T08:32:53.134Z,8.90
2023-03-22T08:33:53.174Z,9.60
2023-03-22T08:34:53.108Z,10.60
2023-03-22T08:35:53.173Z,7.10
2023-03-22T08:36:53.188Z,10.10
2023-03-22T08:37:53.133Z,7.70
2023-03-22T08:38:53.105Z,9.60
2023-03-22T08:39:53.084Z,6.70
2023-03-22T08:40:54.107Z,7.80
2023-03-22T08:41:53.116Z,7.10
2023-03-22T08:42:53.075Z,7.30
2023-03-22T08:43:53.097Z,8.80
2023-03-22T08:44:53.047Z,10.30
2023-03-22T08:45:53.063Z,8.20
2023-03-22T08:46:53.023Z,7.00
2023-03-22T08:47:53.123Z,8.10
2023-03-22T08:48:53.161Z,8.10
2023-03-22T08:49:53.040Z,8.30
2023-03-22T08:50:53.033Z,8.10
2023-03-22T08:51:52.982Z,7.00
2023-03-22T08:52:52.991Z,6.30
2023-03-22T08:53:53.056Z,9.10
2023-03-22T08:54:52.970Z,6.90
2023-03-22T08:55:52.966Z,9.90
2023-03-22T08:56:53.021Z,5.70
2023-03-22T08:57:52.933Z,9.10
2023-03-22T08:58:52.964Z,9.10
2023-03-22T08:59:52.952Z,6.30
2023-03-22T09:00:53.046Z,5.60
2023-03-22T09:01:53.007Z,6.50
2023-03-22T09:02:52.946Z,6.70
2023-03-22T09:03:52.952Z,5.60
2023-03-22T09:04:53.004Z,7.20
2023-03-22T09:05:52.913Z,7.60
2023-03-22T09:06:52.885Z,6.30
2023-03-22T09:07:52.860Z,6.30
2023-03-22T09:08:52.866Z,7.90
2023-03-22T09:09:52.866Z,4.90
2023-03-22T09:10:52.887Z,7.30
2023-03-22T09:11:52.849Z,8.00
2023-03-22T09:12:52.858Z,8.60
2023-03-22T09:13:52.846Z,6.50
2023-03-22T09:14:52.847Z,5.40
2023-03-22T09:15:52.941Z,5.20
2023-03-22T09:16:52.794Z,7.30
2023-03-22T09:17:52.829Z,8.00
2023-03-22T09:18:52.837Z,5.70
2023-03-22T09:20:05.873Z,6.90
2023-03-22T09:20:54.851Z,5.50
2023-03-22T09:21:52.757Z,8.00
2023-03-22T09:22:52.776Z,5.00
2023-03-22T09:23:52.790Z,8.40
2023-03-22T09:24:52.796Z,7.30
2023-03-22T09:25:52.743Z,5.60
2023-03-22T09:26:52.737Z,5.20
2023-03-22T09:27:52.719Z,6.30
2023-03-22T09:28:52.783Z,6.60
2023-03-22T09:29:52.731Z,5.50
2023-03-22T09:30:52.729Z,6.70
2023-03-22T09:31:52.742Z,5.50
2023-03-22T09:32:52.700Z,5.70
2023-03-22T09:33:52.737Z,7.60
2023-03-22T09:34:52.734Z,6.40
2023-03-22T09:35:52.723Z,5.40
2023-03-22T09:36:52.674Z,5.10
2023-03-22T09:37:52.761Z,6.70
2023-03-22T09:38:52.623Z,4.60
2023-03-22T09:39:53.607Z,6.20
2023-03-22T09:40:52.648Z,5.90
2023-03-22T09:41:52.662Z,5.60
2023-03-22T09:42:52.633Z,2.90
2023-03-22T09:43:52.595Z,4.00
2023-03-22T09:44:52.643Z,4.70
2023-03-22T09:45:52.634Z,3.80
2023-03-22T09:46:52.587Z,4.10
2023-03-22T09:47:52.721Z,5.30
2023-03-22T09:48:52.576Z,5.60
2023-03-22T09:49:54.147Z,4.90
2023-03-22T09:50:53.555Z,8.20
2023-03-22T09:51:52.595Z,4.60
2023-03-22T09:52:52.580Z,4.40
2023-03-22T09:53:52.531Z,2.80
2023-03-22T09:54:53.426Z,4.50
2023-03-22T09:55:53.500Z,3.70
2023-03-22T09:56:52.526Z,4.80
2023-03-22T09:57:52.502Z,5.70
2023-03-22T09:58:52.568Z,6.10
2023-03-22T09:59:52.479Z,5.00
2023-03-22T10:00:52.570Z,4.90
2023-03-22T10:01:52.668Z,4.30
2023-03-22T10:02:52.497Z,4.30
2023-03-22T10:03:52.509Z,4.70
2023-03-22T10:04:52.460Z,4.20
2023-03-22T10:05:52.474Z,2.80
2023-03-22T10:06:52.409Z,3.80
2023-03-22T10:07:52.417Z,3.40
2023-03-22T10:08:53.404Z,5.80
2023-03-22T10:09:52.421Z,5.90
2023-03-22T10:10:52.416Z,3.90
2023-03-22T10:11:52.537Z,3.30
2023-03-22T10:12:52.362Z,6.00
2023-03-22T10:13:52.371Z,3.10
2023-03-22T10:14:52.385Z,6.00
2023-03-22T10:15:52.453Z,3.90
2023-03-22T10:16:53.773Z,3.60
2023-03-22T10:17:52.345Z,3.10
2023-03-22T10:18:52.320Z,4.50
2023-03-22T10:19:52.329Z,5.60
2023-03-22T10:20:52.318Z,3.70
2023-03-22T10:21:52.373Z,3.80
2023-03-22T10:22:53.395Z,5.30
2023-03-22T10:23:53.281Z,4.50
2023-03-22T10:24:52.291Z,3.80
2023-03-22T10:25:52.314Z,5.30
2023-03-22T10:26:52.313Z,5.90
2023-03-22T10:27:52.271Z,5.50
2023-03-22T10:28:52.272Z,3.00
2023-03-22T10:29:52.259Z,5.90
2023-03-22T10:30:52.272Z,4.90
2023-03-22T10:31:52.311Z,7.20
2023-03-22T10:32:57.767Z,4.20
2023-03-22T10:33:54.199Z,5.50
2023-03-22T10:34:52.212Z,4.10
2023-03-22T10:35:52.324Z,6.60
2023-03-22T10:36:52.200Z,8.60
2023-03-22T10:37:52.237Z,7.60
2023-03-22T10:38:52.185Z,5.70
2023-03-22T10:39:52.192Z,3.90
2023-03-22T10:40:52.198Z,4.60
2023-03-22T10:41:52.210Z,4.10
2023-03-22T10:42:52.184Z,3.90
2023-03-22T10:43:52.154Z,4.80
2023-03-22T10:44:52.174Z,4.20
2023-03-22T10:45:52.151Z,2.80
2023-03-22T10:46:52.229Z,5.30
2023-03-22T10:47:52.197Z,2.80
2023-03-22T10:48:52.921Z,5.50
2023-03-22T10:49:52.086Z,4.90
2023-03-22T10:50:52.089Z,2.40
2023-03-22T10:51:52.079Z,2.90
2023-03-22T10:52:52.093Z,7.40
2023-03-22T10:53:52.091Z,6.00
2023-03-22T10:54:52.075Z,8.90
2023-03-22T10:55:52.064Z,3.40
2023-03-22T10:56:52.116Z,5.80
2023-03-22T10:57:52.111Z,6.60
2023-03-22T10:58:52.057Z,4.60
2023-03-22T10:59:52.072Z,2.40
2023-03-22T11:00:52.117Z,4.90
2023-03-22T11:01:52.262Z,7.50
2023-03-22T11:02:52.065Z,4.80
2023-03-22T11:03:52.009Z,7.10
2023-03-22T11:04:51.988Z,4.00
2023-03-22T11:05:52.006Z,4.20
2023-03-22T11:06:54.638Z,4.50
2023-03-22T11:07:51.985Z,4.30
2023-03-22T11:08:52.004Z,6.40
2023-03-22T11:09:52.002Z,6.70
2023-03-22T11:10:52.053Z,4.60
2023-03-22T11:11:51.943Z,4.60
2023-03-22T11:12:51.946Z,3.50
2023-03-22T11:13:51.903Z,4.90
2023-03-22T11:14:52.036Z,4.50
2023-03-22T11:15:51.941Z,5.70
2023-03-22T11:16:51.980Z,5.00
2023-03-22T11:17:51.905Z,3.30
2023-03-22T11:18:51.889Z,6.40
2023-03-22T11:19:52.228Z,3.60
2023-03-22T11:20:51.925Z,3.80
2023-03-22T11:21:51.883Z,3.50
2023-03-22T11:22:51.865Z,5.10
2023-03-22T11:23:51.835Z,2.00
2023-03-22T11:24:51.939Z,3.90
2023-03-22T11:25:51.973Z,3.40
2023-03-22T11:26:51.844Z,4.00
2023-03-22T11:27:51.874Z,2.40
2023-03-22T11:28:51.819Z,2.70
2023-03-22T11:29:51.814Z,5.00
2023-03-22T11:30:51.773Z,5.50
2023-03-22T11:31:54.219Z,3.20
2023-03-22T11:32:51.856Z,4.20
2023-03-22T11:33:51.757Z,5.40
2023-03-22T11:34:51.737Z,3.80
2023-03-22T11:35:51.776Z,5.00
2023-03-22T11:36:51.763Z,2.90
2023-03-22T11:37:51.781Z,4.40
2023-03-22T11:38:51.733Z,4.70
2023-03-22T11:39:51.741Z,5.30
2023-03-22T11:40:51.760Z,2.70
2023-03-22T11:41:51.721Z,5.00
2023-03-22T11:42:51.704Z,6.30
2023-03-22T11:43:52.748Z,4.10
2023-03-22T11:44:51.703Z,3.10
2023-03-22T11:45:51.798Z,2.50
2023-03-22T11:46:51.710Z,6.00
2023-03-22T11:47:51.776Z,4.70
2023-03-22T11:48:51.767Z,2.40
2023-03-22T11:49:51.686Z,3.30
2023-03-22T11:50:51.726Z,3.00
2023-03-22T11:51:51.681Z,3.00
2023-03-22T11:52:51.664Z,2.00
2023-03-22T11:53:51.634Z,4.70
2023-03-22T11:54:51.690Z,3.20
2023-03-22T11:55:51.620Z,7.50
2023-03-22T11:56:51.585Z,3.20
2023-03-22T11:57:51.612Z,2.30
2023-03-22T11:58:51.597Z,5.00
2023-03-22T11:59:51.567Z,3.10
2023-03-22T12:00:51.576Z,3.50
2023-03-22T12:01:51.572Z,2.10
2023-03-22T12:02:51.677Z,2.50
2023-03-22T12:03:51.780Z,1.90
2023-03-22T12:04:51.609Z,3.50
2023-03-22T12:05:51.559Z,4.30
2023-03-22T12:06:51.546Z,2.90
2023-03-22T12:07:51.520Z,1.60
2023-03-22T12:08:51.526Z,2.10
2023-03-22T12:09:51.538Z,6.00
2023-03-22T12:10:52.693Z,2.90
2023-03-22T12:11:51.523Z,3.50
2023-03-22T12:12:51.520Z,6.20
2023-03-22T12:13:51.494Z,2.70
2023-03-22T12:14:51.480Z,4.20
2023-03-22T12:15:52.434Z,1.80
2023-03-22T12:16:51.467Z,2.30
2023-03-22T12:17:51.479Z,3.20
2023-03-22T12:18:51.455Z,1.60
2023-03-22T12:19:51.455Z,3.00
2023-03-22T12:20:51.429Z,1.40
2023-03-22T12:21:51.423Z,3.10
2023-03-22T12:22:51.390Z,1.90
2023-03-22T12:23:51.388Z,2.70
2023-03-22T12:24:51.429Z,2.60
2023-03-22T12:25:51.416Z,2.40
2023-03-22T12:26:51.388Z,4.00
2023-03-22T12:27:51.414Z,3.80
2023-03-22T12:28:51.373Z,3.30
2023-03-22T12:29:51.390Z,7.60
2023-03-22T12:30:51.469Z,3.90
2023-03-22T12:31:52.641Z,4.90
2023-03-22T12:32:52.481Z,2.10
2023-03-22T12:33:51.315Z,3.90
2023-03-22T12:34:55.021Z,5.50
2023-03-22T12:35:52.350Z,5.30
2023-03-22T12:36:51.312Z,2.40
2023-03-22T12:37:51.319Z,2.30
2023-03-22T12:38:51.289Z,3.60
2023-03-22T12:39:51.323Z,3.50
2023-03-22T12:40:51.364Z,2.50
2023-03-22T12:41:51.257Z,3.10
2023-03-22T12:42:54.127Z,2.80
2023-03-22T12:43:53.277Z,5.10
2023-03-22T12:45:04.246Z,4.10
2023-03-22T12:45:53.350Z,3.40
2023-03-22T12:46:51.285Z,2.30
2023-03-22T12:47:51.254Z,3.10
2023-03-22T12:48:51.277Z,2.70
2023-03-22T12:49:51.212Z,2.60
2023-03-22T12:50:51.209Z,6.50
2023-03-22T12:51:51.225Z,4.60
2023-03-22T12:52:51.243Z,3.50
2023-03-22T12:53:51.203Z,2.00
2023-03-22T12:54:51.194Z,1.90
2023-03-22T12:55:51.221Z,2.10
2023-03-22T12:56:51.168Z,3.50
2023-03-22T12:57:51.171Z,1.70
2023-03-22T12:58:51.167Z,5.40
2023-03-22T12:59:51.136Z,3.20
2023-03-22T13:00:51.158Z,4.50
2023-03-22T13:01:51.177Z,3.00
2023-03-22T13:02:51.203Z,3.50
2023-03-22T13:03:53.842Z,4.90
2023-03-22T13:04:51.111Z,2.90
2023-03-22T13:05:51.088Z,4.50
2023-03-22T13:06:51.081Z,4.60
2023-03-22T13:07:51.125Z,4.20
2023-03-22T13:08:54.245Z,2.40